createdAt,value
2018-07-07T00:00:23.581Z,28.20
2018-07-07T00:02:52.096Z,28.20
2018-07-07T00:05:20.574Z,27.70
2018-07-07T00:07:49.075Z,28.33
2018-07-07T00:10:17.938Z,27.20
2018-07-07T00:12:46.633Z,27.42
2018-07-07T00:15:19.107Z,28.00
2018-07-07T00:17:48.240Z,27.90
2018-07-07T00:20:17.404Z,28.43
2018-07-07T00:22:46.417Z,27.27
2018-07-07T00:25:17.251Z,28.70
2018-07-07T00:27:46.527Z,27.10
2018-07-07T00:30:15.553Z,30.23
2018-07-07T00:32:44.062Z,26.97
2018-07-07T00:35:12.700Z,26.43
2018-07-07T00:37:41.141Z,25.15
2018-07-07T00:40:10.512Z,26.30
2018-07-07T00:42:39.547Z,26.37
2018-07-07T00:45:08.080Z,25.47
2018-07-07T00:47:36.559Z,24.73
2018-07-07T00:50:05.469Z,25.37
2018-07-07T00:52:33.926Z,27.03
2018-07-07T00:55:02.352Z,26.20
2018-07-07T00:57:30.801Z,26.73
2018-07-07T00:59:59.239Z,27.05
2018-07-07T01:02:27.721Z,27.05
2018-07-07T01:04:56.548Z,29.67
2018-07-07T01:07:25.078Z,29.40
2018-07-07T01:09:53.523Z,28.80
2018-07-07T01:12:21.963Z,28.67
2018-07-07T01:14:50.648Z,30.13
2018-07-07T01:17:19.088Z,30.30
2018-07-07T01:19:47.549Z,32.13
2018-07-07T01:22:16.051Z,30.60
2018-07-07T01:24:44.828Z,31.60
2018-07-07T01:27:13.267Z,30.63
2018-07-07T01:29:42.574Z,33.07
2018-07-07T01:32:11.234Z,32.07
2018-07-07T01:34:39.942Z,29.30
2018-07-07T01:37:08.886Z,28.60
2018-07-07T01:39:37.304Z,32.00
2018-07-07T01:42:06.322Z,29.50
2018-07-07T01:44:34.839Z,30.10
2018-07-07T01:47:03.436Z,43.38
2018-07-07T01:49:31.883Z,48.57
2018-07-07T01:52:00.345Z,51.07
2018-07-07T01:54:28.831Z,51.87
2018-07-07T01:56:57.266Z,56.67
2018-07-07T01:59:25.715Z,52.83
2018-07-07T02:01:54.645Z,56.93
2018-07-07T02:04:23.047Z,57.97
2018-07-07T02:06:51.526Z,59.27
2018-07-07T02:09:20.227Z,66.60
2018-07-07T02:11:49.011Z,62.20
2018-07-07T02:14:17.443Z,63.03
2018-07-07T02:16:46.211Z,61.67
2018-07-07T02:19:14.662Z,66.73
2018-07-07T02:21:43.099Z,67.60
2018-07-07T02:24:11.557Z,68.95
2018-07-07T02:26:40.053Z,71.67
2018-07-07T02:29:08.499Z,69.77
2018-07-07T02:31:36.939Z,71.10
2018-07-07T02:34:05.475Z,72.23
2018-07-07T02:36:33.947Z,69.40
2018-07-07T02:39:02.690Z,67.00
2018-07-07T02:41:31.091Z,61.37
2018-07-07T02:43:59.677Z,62.20
2018-07-07T02:46:28.249Z,58.37
2018-07-07T02:48:56.673Z,58.93
2018-07-07T02:51:25.305Z,56.17
2018-07-07T02:53:53.723Z,57.43
2018-07-07T02:56:22.146Z,52.27
2018-07-07T02:58:50.680Z,51.97
2018-07-07T03:01:19.124Z,53.38
2018-07-07T03:03:47.572Z,51.70
2018-07-07T03:06:15.987Z,54.80
2018-07-07T03:08:44.464Z,55.77
2018-07-07T03:11:12.955Z,55.70
2018-07-07T03:13:41.452Z,59.30
2018-07-07T03:16:09.894Z,57.60
2018-07-07T03:18:38.345Z,57.63
2018-07-07T03:21:06.844Z,57.25
2018-07-07T03:23:35.272Z,55.77
2018-07-07T03:26:04.659Z,53.20
2018-07-07T03:28:33.099Z,55.50
2018-07-07T03:31:01.571Z,54.17
2018-07-07T03:34:32.844Z,55.67
2018-07-07T03:37:01.283Z,54.23
2018-07-07T03:39:30.021Z,54.90
2018-07-07T03:41:58.743Z,50.40
2018-07-07T03:44:27.172Z,53.67
2018-07-07T03:46:55.628Z,52.97
2018-07-07T03:49:24.120Z,47.95
2018-07-07T03:51:52.577Z,49.30
2018-07-07T03:54:21.043Z,48.90
2018-07-07T03:56:49.614Z,51.97
2018-07-07T03:59:18.307Z,52.63
2018-07-07T04:01:47.012Z,51.10
2018-07-07T04:04:15.500Z,50.87
2018-07-07T04:06:43.967Z,49.37
2018-07-07T04:09:12.413Z,49.43
2018-07-07T04:11:40.960Z,47.97
2018-07-07T04:14:10.371Z,45.10
2018-07-07T04:16:38.838Z,46.50
2018-07-07T04:19:07.334Z,44.50
2018-07-07T04:21:35.787Z,44.27
2018-07-07T04:24:04.768Z,46.73
2018-07-07T04:26:33.223Z,45.17
2018-07-07T04:29:01.649Z,46.20
2018-07-07T04:31:30.111Z,40.93
2018-07-07T04:33:58.565Z,41.60
2018-07-07T04:36:27.022Z,42.20
2018-07-07T04:38:55.439Z,40.00
2018-07-07T04:41:23.844Z,40.50
2018-07-07T04:43:52.718Z,41.80
2018-07-07T04:46:21.144Z,41.40
2018-07-07T04:48:49.651Z,38.13
2018-07-07T04:51:18.103Z,40.17
2018-07-07T04:53:46.567Z,42.33
2018-07-07T04:56:15.563Z,42.08
2018-07-07T04:58:44.072Z,37.57
2018-07-07T05:01:12.526Z,38.17
2018-07-07T05:03:40.964Z,38.27
2018-07-07T05:06:09.483Z,37.50
2018-07-07T05:08:37.963Z,36.77
2018-07-07T05:11:06.775Z,35.28
2018-07-07T05:13:35.300Z,35.50
2018-07-07T05:16:03.746Z,34.47
2018-07-07T05:18:32.257Z,35.78
2018-07-07T05:21:00.742Z,31.80
2018-07-07T05:23:29.183Z,31.68
2018-07-07T05:25:57.791Z,32.87
2018-07-07T05:28:26.244Z,35.03
2018-07-07T05:30:54.743Z,35.00
2018-07-07T05:33:23.207Z,33.83
2018-07-07T05:35:51.728Z,34.50
2018-07-07T05:38:20.968Z,34.08
2018-07-07T05:40:49.384Z,34.33
2018-07-07T05:43:17.880Z,37.13
2018-07-07T05:45:46.288Z,36.90
2018-07-07T05:48:14.724Z,33.60
2018-07-07T05:50:43.163Z,34.47
2018-07-07T05:53:11.623Z,34.98
2018-07-07T05:55:40.252Z,33.97
2018-07-07T05:58:08.705Z,34.47
2018-07-07T06:00:37.131Z,33.80
2018-07-07T06:03:05.621Z,33.60
2018-07-07T06:05:34.064Z,34.03
2018-07-07T06:08:02.584Z,30.10
2018-07-07T06:10:31.134Z,31.48
2018-07-07T06:12:59.593Z,31.47
2018-07-07T06:15:28.025Z,30.90
2018-07-07T06:17:56.440Z,34.60
2018-07-07T06:20:24.884Z,31.10
2018-07-07T06:22:53.363Z,28.95
2018-07-07T06:25:21.863Z,29.07
2018-07-07T06:27:50.307Z,29.77
2018-07-07T06:30:18.731Z,31.57
2018-07-07T06:32:47.167Z,31.10
2018-07-07T06:35:15.618Z,33.70
2018-07-07T06:37:44.088Z,28.20
2018-07-07T06:40:12.558Z,28.30
2018-07-07T06:42:40.983Z,26.40
2018-07-07T06:45:09.424Z,28.17
2018-07-07T06:47:37.870Z,27.60
2018-07-07T06:50:06.328Z,30.10
2018-07-07T06:52:34.864Z,27.70
2018-07-07T06:55:03.344Z,29.60
2018-07-07T06:57:31.809Z,29.50
2018-07-07T07:00:00.297Z,30.80
2018-07-07T07:02:28.765Z,31.83
2018-07-07T07:04:57.620Z,34.10
2018-07-07T07:07:26.065Z,33.17
2018-07-07T07:09:54.561Z,35.30
2018-07-07T07:12:23.189Z,31.03
2018-07-07T07:14:51.779Z,33.70
2018-07-07T07:17:20.367Z,33.07
2018-07-07T07:19:48.886Z,33.88
2018-07-07T07:22:17.295Z,31.50
2018-07-07T07:24:45.968Z,32.25
2018-07-07T07:27:14.406Z,29.77
2018-07-07T07:29:42.812Z,29.18
2018-07-07T07:32:11.398Z,30.33
2018-07-07T07:34:39.853Z,27.55
2018-07-07T07:37:08.298Z,30.60
2018-07-07T07:39:36.715Z,30.93
2018-07-07T07:42:05.228Z,29.15
2018-07-07T07:44:33.700Z,28.55
2018-07-07T07:47:02.104Z,26.97
2018-07-07T07:49:30.564Z,28.80
2018-07-07T07:51:59.000Z,27.63
2018-07-07T07:54:27.442Z,28.57
2018-07-07T07:56:56.186Z,27.17
2018-07-07T07:59:24.587Z,28.60
2018-07-07T08:01:53.051Z,27.98
2018-07-07T08:04:21.503Z,28.23
2018-07-07T08:06:49.911Z,25.30
2018-07-07T08:09:18.392Z,26.47
2018-07-07T08:11:46.838Z,24.63
2018-07-07T08:14:15.293Z,25.50
2018-07-07T08:16:43.715Z,24.83
2018-07-07T08:19:12.146Z,27.40
2018-07-07T08:21:40.597Z,26.80
2018-07-07T08:24:09.089Z,27.13
2018-07-07T08:26:37.516Z,26.33
2018-07-07T08:29:05.955Z,25.27
2018-07-07T08:31:34.404Z,24.50
2018-07-07T08:34:02.896Z,25.53
2018-07-07T08:36:31.431Z,23.43
2018-07-07T08:38:59.837Z,25.00
2018-07-07T08:41:28.295Z,23.93
2018-07-07T08:43:56.732Z,23.70
2018-07-07T08:46:25.184Z,23.40
2018-07-07T08:48:53.600Z,24.30
2018-07-07T08:51:22.083Z,23.40
2018-07-07T08:53:50.533Z,22.58
2018-07-07T08:56:18.969Z,20.93
2018-07-07T08:58:47.411Z,20.63
2018-07-07T09:01:15.843Z,20.80
2018-07-07T09:03:44.283Z,20.97
2018-07-07T09:06:12.720Z,20.47
2018-07-07T09:08:41.145Z,21.80
2018-07-07T09:11:10.021Z,19.80
2018-07-07T09:13:38.463Z,18.83
2018-07-07T09:16:06.914Z,20.83
2018-07-07T09:18:35.412Z,19.23
2018-07-07T09:21:03.833Z,20.55
2018-07-07T09:23:32.292Z,17.40
2018-07-07T09:26:00.708Z,16.90
2018-07-07T09:28:29.138Z,17.70
2018-07-07T09:30:57.691Z,17.17
2018-07-07T09:33:26.092Z,16.10
2018-07-07T09:35:54.523Z,14.65
2018-07-07T09:38:22.991Z,13.00
2018-07-07T09:40:51.435Z,12.00
2018-07-07T09:43:19.895Z,11.90
2018-07-07T09:45:48.571Z,10.43
2018-07-07T09:48:17.031Z,9.63
2018-07-07T09:50:45.492Z,8.40
2018-07-07T09:54:16.487Z,10.20
2018-07-07T09:56:44.924Z,8.47
2018-07-07T09:59:13.364Z,7.27
2018-07-07T10:01:41.843Z,6.53
2018-07-07T10:04:10.332Z,7.13
2018-07-07T10:06:38.739Z,7.43
2018-07-07T10:09:07.784Z,6.85
2018-07-07T10:11:36.251Z,7.60
2018-07-07T10:14:04.711Z,7.15
2018-07-07T10:16:33.379Z,6.97
2018-07-07T10:19:01.815Z,7.92
2018-07-07T10:21:30.268Z,7.47
2018-07-07T10:23:58.720Z,7.30
2018-07-07T10:26:27.202Z,8.00
2018-07-07T10:28:55.654Z,7.27
2018-07-07T10:31:24.039Z,6.63
2018-07-07T10:33:52.875Z,6.90
2018-07-07T10:36:21.393Z,6.50
2018-07-07T10:38:49.899Z,6.10
2018-07-07T10:41:18.432Z,6.00
2018-07-07T10:43:46.863Z,6.73
2018-07-07T10:46:15.322Z,5.73
2018-07-07T10:48:43.739Z,4.97
2018-07-07T10:51:12.155Z,5.70
2018-07-07T10:53:40.598Z,6.07
2018-07-07T10:56:09.063Z,5.30
2018-07-07T10:58:37.526Z,5.80
2018-07-07T11:01:06.132Z,4.72
2018-07-07T11:03:34.572Z,5.27
2018-07-07T11:06:03.044Z,5.20
2018-07-07T11:08:31.519Z,5.40
2018-07-07T11:11:00.023Z,4.90
2018-07-07T11:13:28.445Z,4.20
2018-07-07T11:15:56.913Z,4.90
2018-07-07T11:18:25.335Z,5.00
2018-07-07T11:20:53.779Z,4.60
2018-07-07T11:23:22.225Z,5.50
2018-07-07T11:25:50.659Z,4.60
2018-07-07T11:28:19.154Z,3.80
2018-07-07T11:30:47.622Z,4.30
2018-07-07T11:33:16.040Z,4.22
2018-07-07T11:35:44.477Z,4.00
2018-07-07T11:39:15.292Z,4.20
2018-07-07T11:41:43.748Z,3.73
2018-07-07T11:44:12.178Z,4.20
2018-07-07T11:46:40.652Z,4.23
2018-07-07T11:49:09.104Z,3.93
2018-07-07T11:51:37.564Z,4.57
2018-07-07T11:54:06.711Z,4.20
2018-07-07T11:56:35.123Z,4.43
2018-07-07T11:59:03.988Z,3.83
2018-07-07T12:01:32.711Z,4.40
2018-07-07T12:04:01.143Z,3.60
2018-07-07T12:06:29.561Z,3.50
2018-07-07T12:08:57.988Z,4.80
2018-07-07T12:11:26.467Z,4.10
2018-07-07T12:13:54.833Z,4.53
2018-07-07T12:16:23.240Z,4.00
2018-07-07T12:18:51.676Z,4.10
2018-07-07T12:21:20.144Z,4.90
2018-07-07T12:23:48.591Z,4.53
2018-07-07T12:26:17.014Z,5.57
2018-07-07T12:28:45.430Z,4.45
2018-07-07T12:31:14.049Z,5.03
2018-07-07T12:33:42.611Z,4.80
2018-07-07T12:36:11.106Z,4.40
2018-07-07T12:38:39.504Z,4.57
2018-07-07T12:41:07.939Z,5.10
2018-07-07T12:43:36.453Z,5.57
2018-07-07T12:46:04.875Z,5.27
2018-07-07T12:48:33.334Z,4.70
2018-07-07T12:51:01.717Z,4.57
2018-07-07T12:53:30.141Z,4.53
2018-07-07T12:55:59.100Z,5.03
2018-07-07T12:58:27.500Z,5.80
2018-07-07T13:00:55.959Z,5.20
2018-07-07T13:03:24.372Z,4.95
2018-07-07T13:05:53.000Z,4.58
2018-07-07T13:08:21.420Z,4.97
2018-07-07T13:10:49.870Z,4.27
2018-07-07T13:13:18.311Z,4.30
2018-07-07T13:15:46.792Z,4.53
2018-07-07T13:18:15.245Z,4.87
2018-07-07T13:20:44.044Z,5.60
2018-07-07T13:23:12.428Z,5.00
2018-07-07T13:25:40.881Z,4.50
2018-07-07T13:28:09.728Z,4.30
2018-07-07T13:30:38.224Z,4.43
2018-07-07T13:33:07.147Z,4.30
2018-07-07T13:35:35.568Z,4.70
2018-07-07T13:38:04.092Z,4.30
2018-07-07T13:40:32.582Z,4.53
2018-07-07T13:43:01.060Z,4.27
2018-07-07T13:45:29.538Z,3.87
2018-07-07T13:47:57.949Z,4.10
2018-07-07T13:50:26.391Z,3.95
2018-07-07T13:52:54.851Z,4.00
2018-07-07T13:55:23.332Z,4.10
2018-07-07T13:57:51.765Z,3.33
2018-07-07T14:00:20.228Z,3.90
2018-07-07T14:02:48.700Z,3.43
2018-07-07T14:05:17.094Z,3.33
2018-07-07T14:07:45.746Z,3.03
2018-07-07T14:10:14.179Z,2.70
2018-07-07T14:12:42.637Z,3.27
2018-07-07T14:15:11.055Z,2.77
2018-07-07T14:17:39.503Z,2.93
2018-07-07T14:20:07.998Z,2.50
2018-07-07T14:22:36.643Z,2.83
2018-07-07T14:25:05.135Z,3.17
2018-07-07T14:27:33.584Z,3.03
2018-07-07T14:30:02.083Z,3.00
2018-07-07T14:32:30.512Z,3.10
2018-07-07T14:34:59.180Z,2.90
2018-07-07T14:37:28.380Z,2.58
2018-07-07T14:39:58.932Z,2.80
2018-07-07T14:42:49.775Z,2.90
2018-07-07T14:45:24.289Z,3.00
2018-07-07T14:47:53.772Z,3.07
2018-07-07T14:50:22.519Z,3.00
2018-07-07T14:52:50.960Z,2.53
2018-07-07T14:55:20.933Z,3.40
2018-07-07T14:57:49.544Z,2.87
2018-07-07T15:00:25.776Z,3.30
2018-07-07T15:02:55.476Z,2.30
2018-07-07T15:05:23.971Z,2.70
2018-07-07T15:07:52.419Z,3.10
2018-07-07T15:10:20.915Z,2.20
2018-07-07T15:12:49.677Z,2.27
2018-07-07T15:15:18.131Z,2.13
2018-07-07T15:17:47.405Z,2.13
2018-07-07T15:20:15.868Z,2.00
2018-07-07T15:22:44.490Z,1.92
2018-07-07T15:25:12.883Z,3.47
2018-07-07T15:27:41.296Z,2.75
2018-07-07T15:30:10.728Z,2.37
2018-07-07T15:32:39.474Z,2.15
2018-07-07T15:35:07.948Z,2.30
2018-07-07T15:37:36.514Z,2.03
2018-07-07T15:40:05.386Z,2.03
2018-07-07T15:42:34.511Z,2.50
2018-07-07T15:45:02.944Z,2.00
2018-07-07T15:47:31.400Z,2.27
2018-07-07T15:50:00.055Z,2.50
2018-07-07T15:52:28.466Z,2.67
2018-07-07T15:54:57.145Z,2.70
2018-07-07T15:57:25.736Z,2.33
2018-07-07T15:59:54.223Z,3.10
2018-07-07T16:02:22.659Z,2.43
2018-07-07T16:04:51.084Z,2.40
2018-07-07T16:07:19.551Z,3.23
2018-07-07T16:09:48.015Z,2.60
2018-07-07T16:12:16.451Z,2.47
2018-07-07T16:14:44.880Z,2.70
2018-07-07T16:17:13.308Z,2.50
2018-07-07T16:19:41.867Z,2.40
2018-07-07T16:22:10.389Z,2.80
2018-07-07T16:24:39.424Z,2.37
2018-07-07T16:27:07.852Z,2.73
2018-07-07T16:29:36.336Z,1.90
2018-07-07T16:32:04.824Z,2.50
2018-07-07T16:34:33.229Z,2.60
2018-07-07T16:37:02.024Z,2.30
2018-07-07T16:39:30.477Z,2.85
2018-07-07T16:41:58.996Z,3.53
2018-07-07T16:44:27.978Z,3.40
2018-07-07T16:46:56.880Z,2.60
2018-07-07T16:49:25.536Z,2.87
2018-07-07T16:51:54.672Z,2.30
2018-07-07T16:54:23.167Z,2.50
2018-07-07T16:56:52.303Z,2.62
2018-07-07T16:59:20.763Z,2.70
2018-07-07T17:01:50.926Z,3.10
2018-07-07T17:04:19.399Z,3.30
2018-07-07T17:06:48.147Z,2.77
2018-07-07T17:09:17.000Z,2.77
2018-07-07T17:11:45.533Z,3.13
2018-07-07T17:14:14.416Z,3.10
2018-07-07T17:16:44.539Z,2.90
2018-07-07T17:19:14.940Z,3.27
2018-07-07T17:21:44.664Z,2.90
2018-07-07T17:24:13.816Z,3.10
2018-07-07T17:26:42.278Z,2.93
2018-07-07T17:29:11.145Z,3.13
2018-07-07T17:31:40.008Z,4.90
2018-07-07T17:34:08.474Z,3.33
2018-07-07T17:36:37.540Z,3.50
2018-07-07T17:39:06.088Z,3.20
2018-07-07T17:41:35.276Z,2.77
2018-07-07T17:44:03.759Z,3.17
2018-07-07T17:46:32.214Z,3.33
2018-07-07T17:49:01.019Z,3.00
2018-07-07T17:51:30.364Z,2.90
2018-07-07T17:54:00.290Z,3.17
2018-07-07T17:56:29.450Z,2.90
2018-07-07T17:58:58.386Z,3.07
2018-07-07T18:01:26.798Z,3.30
2018-07-07T18:03:55.270Z,3.30
2018-07-07T18:06:23.805Z,3.53
2018-07-07T18:08:52.477Z,3.80
2018-07-07T18:11:20.956Z,3.40
2018-07-07T18:13:49.380Z,3.13
2018-07-07T18:16:17.958Z,3.33
2018-07-07T18:18:46.407Z,3.10
2018-07-07T18:21:14.936Z,3.13
2018-07-07T18:23:43.395Z,3.50
2018-07-07T18:26:11.844Z,4.20
2018-07-07T18:28:40.394Z,3.40
2018-07-07T18:31:08.875Z,3.08
2018-07-07T18:33:37.659Z,3.10
2018-07-07T18:36:06.225Z,3.20
2018-07-07T18:38:34.654Z,3.23
2018-07-07T18:41:03.123Z,4.10
2018-07-07T18:43:31.756Z,3.20
2018-07-07T18:49:31.268Z,3.90
2018-07-07T18:51:59.740Z,3.77
2018-07-07T18:54:28.190Z,3.63
2018-07-07T18:56:56.606Z,6.27
2018-07-07T18:59:25.037Z,4.20
2018-07-07T19:01:53.560Z,5.47
2018-07-07T19:04:22.104Z,3.77
2018-07-07T19:06:50.575Z,4.13
2018-07-07T19:09:19.258Z,4.60
2018-07-07T19:11:47.678Z,4.00
2018-07-07T19:14:16.411Z,4.23
2018-07-07T19:16:45.148Z,3.80
2018-07-07T19:19:13.592Z,3.63
2018-07-07T19:21:47.237Z,4.70
2018-07-07T19:24:21.129Z,5.35
2018-07-07T19:26:53.449Z,6.80
2018-07-07T19:29:23.011Z,5.30
2018-07-07T19:31:56.617Z,4.93
2018-07-07T19:34:30.558Z,4.97
2018-07-07T19:37:04.295Z,6.27
2018-07-07T19:39:32.742Z,6.30
2018-07-07T19:42:01.144Z,7.90
2018-07-07T19:44:29.563Z,6.40
2018-07-07T19:46:58.020Z,5.37
2018-07-07T19:49:27.372Z,5.10
2018-07-07T19:51:55.864Z,4.60
2018-07-07T19:54:24.378Z,5.43
2018-07-07T19:56:52.847Z,5.30
2018-07-07T19:59:21.235Z,5.30
2018-07-07T20:01:49.664Z,5.92
2018-07-07T20:04:18.129Z,6.08
2018-07-07T20:06:46.564Z,9.07
2018-07-07T20:09:14.999Z,7.85
2018-07-07T20:11:43.474Z,9.90
2018-07-07T20:14:13.259Z,5.97
2018-07-07T20:16:52.837Z,5.40
2018-07-07T20:19:22.849Z,6.60
2018-07-07T20:21:59.201Z,6.17
2018-07-07T20:24:38.020Z,6.40
2018-07-07T20:27:12.885Z,6.67
2018-07-07T20:29:41.500Z,9.13
2018-07-07T20:32:15.153Z,8.40
2018-07-07T20:34:43.565Z,6.87
2018-07-07T20:37:12.011Z,7.78
2018-07-07T20:39:40.439Z,7.27
2018-07-07T20:42:08.914Z,7.13
2018-07-07T20:44:37.326Z,7.53
2018-07-07T20:47:06.021Z,7.00
2018-07-07T20:49:34.468Z,8.10
2018-07-07T20:52:03.207Z,7.57
2018-07-07T20:54:31.914Z,8.10
2018-07-07T20:57:00.332Z,8.23
2018-07-07T20:59:28.847Z,8.73
2018-07-07T21:01:57.318Z,9.73
2018-07-07T21:04:25.765Z,9.10
2018-07-07T21:06:54.450Z,9.90
2018-07-07T21:09:22.924Z,8.70
2018-07-07T21:11:51.401Z,8.75
2018-07-07T21:14:19.836Z,9.10
2018-07-07T21:16:48.585Z,8.83
2018-07-07T21:19:17.030Z,9.57
2018-07-07T21:24:44.235Z,9.47
2018-07-07T21:27:12.725Z,8.47
2018-07-07T21:29:41.181Z,9.10
2018-07-07T21:32:09.683Z,9.20
2018-07-07T21:34:38.396Z,9.77
2018-07-07T21:37:06.859Z,10.63
2018-07-07T21:39:35.299Z,9.30
2018-07-07T21:42:03.790Z,10.57
2018-07-07T21:44:32.418Z,10.95
2018-07-07T21:47:00.967Z,9.85
2018-07-07T21:49:29.598Z,8.30
2018-07-07T21:51:58.059Z,8.70
2018-07-07T21:54:26.524Z,8.23
2018-07-07T21:56:54.974Z,8.65
2018-07-07T21:59:24.079Z,9.10
2018-07-07T22:01:58.753Z,9.17
2018-07-07T22:04:33.304Z,8.18
2018-07-07T22:07:08.041Z,8.57
2018-07-07T22:09:37.331Z,8.10
2018-07-07T22:12:06.227Z,9.13
2018-07-07T22:14:34.756Z,9.80
2018-07-07T22:17:03.556Z,9.90
2018-07-07T22:19:32.023Z,9.00
2018-07-07T22:22:02.276Z,9.53
2018-07-07T22:24:30.792Z,8.43
2018-07-07T22:27:03.728Z,8.80
2018-07-07T22:29:32.224Z,7.95
2018-07-07T22:32:02.011Z,8.03
2018-07-07T22:34:32.552Z,7.80
2018-07-07T22:37:01.428Z,7.47
2018-07-07T22:39:33.230Z,8.90
2018-07-07T22:42:02.699Z,7.67
2018-07-07T22:44:31.604Z,8.30
2018-07-07T22:47:00.082Z,9.33
2018-07-07T22:49:29.280Z,8.77
2018-07-07T22:51:57.746Z,10.17
2018-07-07T22:54:26.261Z,10.10
2018-07-07T22:56:54.827Z,10.40
2018-07-07T22:59:23.337Z,10.33
2018-07-07T23:01:51.778Z,10.37
2018-07-07T23:04:20.202Z,9.40
2018-07-07T23:06:48.952Z,10.82
2018-07-07T23:09:18.224Z,10.13
2018-07-07T23:11:46.767Z,10.23
2018-07-07T23:14:15.340Z,10.27
2018-07-07T23:16:43.804Z,10.47
2018-07-07T23:19:12.412Z,9.33
2018-07-07T23:21:40.878Z,9.30
2018-07-07T23:24:09.646Z,9.70
2018-07-07T23:26:38.111Z,10.23
2018-07-07T23:29:06.578Z,9.53
2018-07-07T23:31:35.552Z,9.40
2018-07-07T23:34:04.608Z,10.77
2018-07-07T23:36:33.240Z,10.33
2018-07-07T23:39:01.702Z,9.48
2018-07-07T23:41:30.124Z,10.20
2018-07-07T23:43:58.626Z,9.30
2018-07-07T23:46:27.097Z,9.30
2018-07-07T23:48:55.560Z,9.03
2018-07-07T23:51:23.998Z,10.10
2018-07-07T23:53:52.513Z,9.47
2018-07-07T23:56:21.046Z,10.00
2018-07-07T23:58:49.571Z,10.40
